sensor_id;sensor_type;location;lat;lon;timestamp;pressure;altitude;pressure_sealevel;temperature;humidity
9969;BME280;5025;48.890;9.278;2023-08-21T00:01:23;99224.31;;;27.05;65.45
9969;BME280;5025;48.890;9.278;2023-08-21T00:03:49;99230.50;;;27.01;65.63
9969;BME280;5025;48.890;9.278;2023-08-21T00:06:14;99234.44;;;27.00;65.69
9969;BME280;5025;48.890;9.278;2023-08-21T00:08:39;99225.63;;;26.98;65.84
9969;BME280;5025;48.890;9.278;2023-08-21T00:11:04;99220.72;;;26.95;66.16
9969;BME280;5025;48.890;9.278;2023-08-21T00:13:30;99226.94;;;26.92;66.20
9969;BME280;5025;48.890;9.278;2023-08-21T00:15:55;99237.53;;;26.90;66.38
9969;BME280;5025;48.890;9.278;2023-08-21T00:18:21;99233.97;;;26.90;66.70
9969;BME280;5025;48.890;9.278;2023-08-21T00:20:46;99226.31;;;26.87;67.09
9969;BME280;5025;48.890;9.278;2023-08-21T00:23:12;99218.78;;;26.87;66.92
9969;BME280;5025;48.890;9.278;2023-08-21T00:25:37;99221.56;;;26.87;67.08
9969;BME280;5025;48.890;9.278;2023-08-21T00:28:03;99223.53;;;26.87;67.63
9969;BME280;5025;48.890;9.278;2023-08-21T00:30:28;99225.00;;;26.84;67.72
9969;BME280;5025;48.890;9.278;2023-08-21T00:32:53;99225.16;;;26.79;68.03
9969;BME280;5025;48.890;9.278;2023-08-21T00:35:18;99238.69;;;26.72;68.40
9969;BME280;5025;48.890;9.278;2023-08-21T00:37:44;99229.72;;;26.66;68.66
9969;BME280;5025;48.890;9.278;2023-08-21T00:40:09;99228.91;;;26.65;68.72
9969;BME280;5025;48.890;9.278;2023-08-21T00:42:35;99233.31;;;26.67;68.94
9969;BME280;5025;48.890;9.278;2023-08-21T00:45:00;99224.97;;;26.58;69.30
9969;BME280;5025;48.890;9.278;2023-08-21T00:47:25;99219.41;;;26.58;69.25
9969;BME280;5025;48.890;9.278;2023-08-21T00:49:51;99217.44;;;26.58;69.59
9969;BME280;5025;48.890;9.278;2023-08-21T00:52:17;99211.91;;;26.58;69.60
9969;BME280;5025;48.890;9.278;2023-08-21T00:54:43;99215.19;;;26.60;69.82
9969;BME280;5025;48.890;9.278;2023-08-21T00:57:09;99209.81;;;26.64;69.95
9969;BME280;5025;48.890;9.278;2023-08-21T00:59:35;99208.50;;;26.61;69.97
9969;BME280;5025;48.890;9.278;2023-08-21T01:02:00;99206.88;;;26.60;69.93
9969;BME280;5025;48.890;9.278;2023-08-21T01:04:26;99210.31;;;26.57;70.16
9969;BME280;5025;48.890;9.278;2023-08-21T01:06:52;99206.22;;;26.55;70.27
9969;BME280;5025;48.890;9.278;2023-08-21T01:12:21;99207.19;;;26.50;70.43
9969;BME280;5025;48.890;9.278;2023-08-21T01:17:23;99208.97;;;26.46;70.95
9969;BME280;5025;48.890;9.278;2023-08-21T01:19:49;99210.13;;;26.45;70.57
9969;BME280;5025;48.890;9.278;2023-08-21T01:22:15;99208.31;;;26.40;70.98
9969;BME280;5025;48.890;9.278;2023-08-21T01:24:40;99207.50;;;26.31;71.05
9969;BME280;5025;48.890;9.278;2023-08-21T01:27:06;99213.69;;;26.28;71.47
9969;BME280;5025;48.890;9.278;2023-08-21T01:29:32;99212.88;;;26.27;71.35
9969;BME280;5025;48.890;9.278;2023-08-21T01:32:09;99216.78;;;26.26;71.59
9969;BME280;5025;48.890;9.278;2023-08-21T01:34:37;99212.69;;;26.24;71.71
9969;BME280;5025;48.890;9.278;2023-08-21T01:37:03;99209.94;;;26.24;71.64
9969;BME280;5025;48.890;9.278;2023-08-21T01:39:29;99215.47;;;26.24;71.95
9969;BME280;5025;48.890;9.278;2023-08-21T01:41:56;99210.91;;;26.19;72.16
9969;BME280;5025;48.890;9.278;2023-08-21T01:44:21;99214.31;;;26.16;71.95
9969;BME280;5025;48.890;9.278;2023-08-21T01:46:47;99208.44;;;26.09;72.39
9969;BME280;5025;48.890;9.278;2023-08-21T01:49:12;99212.66;;;26.06;72.06
9969;BME280;5025;48.890;9.278;2023-08-21T01:51:37;99212.97;;;26.05;72.25
9969;BME280;5025;48.890;9.278;2023-08-21T01:54:03;99214.75;;;26.01;72.52
9969;BME280;5025;48.890;9.278;2023-08-21T01:56:28;99215.41;;;25.98;72.86
9969;BME280;5025;48.890;9.278;2023-08-21T01:58:53;99206.56;;;25.95;72.69
9969;BME280;5025;48.890;9.278;2023-08-21T02:01:18;99205.25;;;25.93;72.87
9969;BME280;5025;48.890;9.278;2023-08-21T02:03:45;99205.56;;;25.91;72.87
9969;BME280;5025;48.890;9.278;2023-08-21T02:06:10;99206.22;;;25.88;73.15
9969;BME280;5025;48.890;9.278;2023-08-21T02:08:35;99201.31;;;25.85;73.32
9969;BME280;5025;48.890;9.278;2023-08-21T02:11:01;99204.25;;;25.80;73.31
9969;BME280;5025;48.890;9.278;2023-08-21T02:13:26;99208.78;;;25.76;73.81
9969;BME280;5025;48.890;9.278;2023-08-21T02:15:52;99200.00;;;25.74;73.90
9969;BME280;5025;48.890;9.278;2023-08-21T02:18:17;99206.16;;;25.71;73.85
9969;BME280;5025;48.890;9.278;2023-08-21T02:20:42;99212.34;;;25.68;73.83
9969;BME280;5025;48.890;9.278;2023-08-21T02:23:08;99205.00;;;25.63;74.07
9969;BME280;5025;48.890;9.278;2023-08-21T02:25:33;99213.59;;;25.62;74.48
9969;BME280;5025;48.890;9.278;2023-08-21T02:27:58;99213.44;;;25.58;74.45
9969;BME280;5025;48.890;9.278;2023-08-21T02:30:23;99215.69;;;25.56;74.71
9969;BME280;5025;48.890;9.278;2023-08-21T02:32:51;99212.44;;;25.54;74.83
9969;BME280;5025;48.890;9.278;2023-08-21T02:35:17;99215.50;;;25.52;74.69
9969;BME280;5025;48.890;9.278;2023-08-21T02:37:42;99221.69;;;25.49;75.02
9969;BME280;5025;48.890;9.278;2023-08-21T02:40:08;99215.97;;;25.46;75.06
9969;BME280;5025;48.890;9.278;2023-08-21T02:42:34;99217.91;;;25.45;75.29
9969;BME280;5025;48.890;9.278;2023-08-21T02:44:59;99216.63;;;25.43;75.53
9969;BME280;5025;48.890;9.278;2023-08-21T02:47:28;99219.69;;;25.41;75.39
9969;BME280;5025;48.890;9.278;2023-08-21T02:49:53;99218.38;;;25.38;75.59
9969;BME280;5025;48.890;9.278;2023-08-21T02:52:19;99222.25;;;25.37;75.82
9969;BME280;5025;48.890;9.278;2023-08-21T02:54:44;99225.66;;;25.34;75.80
9969;BME280;5025;48.890;9.278;2023-08-21T02:57:09;99216.06;;;25.32;75.83
9969;BME280;5025;48.890;9.278;2023-08-21T02:59:34;99213.38;;;25.27;76.23
9969;BME280;5025;48.890;9.278;2023-08-21T03:02:00;99221.19;;;25.24;76.13
9969;BME280;5025;48.890;9.278;2023-08-21T03:04:25;99214.34;;;25.22;76.22
9969;BME280;5025;48.890;9.278;2023-08-21T03:06:50;99217.72;;;25.19;76.09
9969;BME280;5025;48.890;9.278;2023-08-21T03:09:15;99219.38;;;25.20;76.40
9969;BME280;5025;48.890;9.278;2023-08-21T03:11:41;99221.34;;;25.19;76.25
9969;BME280;5025;48.890;9.278;2023-08-21T03:14:06;99215.81;;;25.19;76.94
9969;BME280;5025;48.890;9.278;2023-08-21T03:16:31;99216.59;;;25.20;75.92
9969;BME280;5025;48.890;9.278;2023-08-21T03:18:58;99211.41;;;25.18;75.94
9969;BME280;5025;48.890;9.278;2023-08-21T03:21:24;99222.44;;;25.18;76.24
9969;BME280;5025;48.890;9.278;2023-08-21T03:23:56;99225.53;;;25.17;75.93
9969;BME280;5025;48.890;9.278;2023-08-21T03:26:22;99216.75;;;25.15;76.21
9969;BME280;5025;48.890;9.278;2023-08-21T03:28:48;99218.69;;;25.14;75.86
9969;BME280;5025;48.890;9.278;2023-08-21T03:31:14;99228.13;;;25.13;75.98
9969;BME280;5025;48.890;9.278;2023-08-21T03:33:39;99227.59;;;25.11;76.42
9969;BME280;5025;48.890;9.278;2023-08-21T03:36:05;99225.16;;;25.10;76.24
9969;BME280;5025;48.890;9.278;2023-08-21T03:38:30;99224.97;;;25.06;76.24
9969;BME280;5025;48.890;9.278;2023-08-21T03:40:55;99223.16;;;25.01;76.40
9969;BME280;5025;48.890;9.278;2023-08-21T03:43:20;99224.09;;;24.97;76.82
9969;BME280;5025;48.890;9.278;2023-08-21T03:45:46;99229.13;;;24.95;77.10
9969;BME280;5025;48.890;9.278;2023-08-21T03:48:11;99233.84;;;24.94;76.62
9969;BME280;5025;48.890;9.278;2023-08-21T03:50:38;99234.97;;;24.93;76.88
9969;BME280;5025;48.890;9.278;2023-08-21T03:53:03;99228.09;;;24.91;76.99
9969;BME280;5025;48.890;9.278;2023-08-21T03:55:28;99234.47;;;24.91;76.99
9969;BME280;5025;48.890;9.278;2023-08-21T03:57:54;99237.53;;;24.90;76.96
9969;BME280;5025;48.890;9.278;2023-08-21T04:00:19;99233.75;;;24.85;77.00
9969;BME280;5025;48.890;9.278;2023-08-21T04:02:44;99234.88;;;24.84;76.85
9969;BME280;5025;48.890;9.278;2023-08-21T04:05:09;99237.78;;;24.79;77.37
9969;BME280;5025;48.890;9.278;2023-08-21T04:07:36;99246.38;;;24.78;77.23
9969;BME280;5025;48.890;9.278;2023-08-21T04:10:02;99245.34;;;24.74;77.42
9969;BME280;5025;48.890;9.278;2023-08-21T04:12:27;99244.38;;;24.69;77.52
9969;BME280;5025;48.890;9.278;2023-08-21T04:14:52;99248.25;;;24.68;77.43
9969;BME280;5025;48.890;9.278;2023-08-21T04:17:22;99248.88;;;24.65;77.60
9969;BME280;5025;48.890;9.278;2023-08-21T04:19:47;99258.97;;;24.56;78.00
9969;BME280;5025;48.890;9.278;2023-08-21T04:22:12;99258.88;;;24.47;78.47
9969;BME280;5025;48.890;9.278;2023-08-21T04:24:38;99264.72;;;24.46;78.60
9969;BME280;5025;48.890;9.278;2023-08-21T04:27:04;99258.41;;;24.45;78.90
9969;BME280;5025;48.890;9.278;2023-08-21T04:29:29;99265.88;;;24.45;78.58
9969;BME280;5025;48.890;9.278;2023-08-21T04:31:54;99258.19;;;24.42;78.90
9969;BME280;5025;48.890;9.278;2023-08-21T04:34:20;99265.34;;;24.43;78.99
9969;BME280;5025;48.890;9.278;2023-08-21T04:36:45;99266.25;;;24.38;79.05
9969;BME280;5025;48.890;9.278;2023-08-21T04:39:10;99265.16;;;24.39;78.99
9969;BME280;5025;48.890;9.278;2023-08-21T04:41:35;99260.25;;;24.36;79.40
9969;BME280;5025;48.890;9.278;2023-08-21T04:44:01;99263.81;;;24.37;79.39
9969;BME280;5025;48.890;9.278;2023-08-21T04:46:28;99261.88;;;24.37;79.54
9969;BME280;5025;48.890;9.278;2023-08-21T04:48:53;99261.88;;;24.37;79.28
9969;BME280;5025;48.890;9.278;2023-08-21T04:51:18;99255.84;;;24.35;79.48
9969;BME280;5025;48.890;9.278;2023-08-21T04:53:45;99258.59;;;24.35;79.40
9969;BME280;5025;48.890;9.278;2023-08-21T04:56:10;99260.25;;;24.36;79.51
9969;BME280;5025;48.890;9.278;2023-08-21T04:58:35;99260.75;;;24.38;79.37
9969;BME280;5025;48.890;9.278;2023-08-21T05:01:01;99259.13;;;24.37;79.52
9969;BME280;5025;48.890;9.278;2023-08-21T05:03:26;99266.25;;;24.38;79.73
9969;BME280;5025;48.890;9.278;2023-08-21T05:05:52;99267.09;;;24.39;79.40
9969;BME280;5025;48.890;9.278;2023-08-21T05:08:20;99274.53;;;24.38;79.81
9969;BME280;5025;48.890;9.278;2023-08-21T05:10:45;99265.25;;;24.34;79.92
9969;BME280;5025;48.890;9.278;2023-08-21T05:13:10;99267.13;;;24.25;79.64
9969;BME280;5025;48.890;9.278;2023-08-21T05:15:36;99272.53;;;24.16;80.00
9969;BME280;5025;48.890;9.278;2023-08-21T05:18:01;99279.78;;;24.12;80.32
9969;BME280;5025;48.890;9.278;2023-08-21T05:20:26;99276.72;;;24.13;80.75
9969;BME280;5025;48.890;9.278;2023-08-21T05:22:52;99281.22;;;24.09;80.96
9969;BME280;5025;48.890;9.278;2023-08-21T05:25:17;99275.47;;;24.06;81.12
9969;BME280;5025;48.890;9.278;2023-08-21T05:27:42;99281.31;;;24.04;81.71
9969;BME280;5025;48.890;9.278;2023-08-21T05:30:08;99281.84;;;24.06;81.77
9969;BME280;5025;48.890;9.278;2023-08-21T05:32:35;99286.75;;;24.09;81.41
9969;BME280;5025;48.890;9.278;2023-08-21T05:35:00;99278.97;;;24.11;81.55
9969;BME280;5025;48.890;9.278;2023-08-21T05:37:25;99287.44;;;24.15;81.81
9969;BME280;5025;48.890;9.278;2023-08-21T05:39:52;99287.97;;;24.17;81.58
9969;BME280;5025;48.890;9.278;2023-08-21T05:42:17;99284.06;;;24.18;82.07
9969;BME280;5025;48.890;9.278;2023-08-21T05:44:42;99293.69;;;24.21;82.08
9969;BME280;5025;48.890;9.278;2023-08-21T05:47:07;99295.34;;;24.22;81.73
9969;BME280;5025;48.890;9.278;2023-08-21T05:49:33;99293.06;;;24.24;82.19
9969;BME280;5025;48.890;9.278;2023-08-21T05:51:58;99293.88;;;24.24;81.92
9969;BME280;5025;48.890;9.278;2023-08-21T05:54:25;99299.09;;;24.26;81.82
9969;BME280;5025;48.890;9.278;2023-08-21T05:56:50;99294.41;;;24.26;81.83
9969;BME280;5025;48.890;9.278;2023-08-21T05:59:26;99297.97;;;24.27;82.07
9969;BME280;5025;48.890;9.278;2023-08-21T06:01:52;99309.03;;;24.27;81.90
9969;BME280;5025;48.890;9.278;2023-08-21T06:04:18;99307.91;;;24.28;82.22
9969;BME280;5025;48.890;9.278;2023-08-21T06:06:43;99303.38;;;24.32;82.00
9969;BME280;5025;48.890;9.278;2023-08-21T06:09:08;99298.38;;;24.34;82.08
9969;BME280;5025;48.890;9.278;2023-08-21T06:11:33;99303.91;;;24.34;81.84
9969;BME280;5025;48.890;9.278;2023-08-21T06:13:59;99296.13;;;24.36;81.95
9969;BME280;5025;48.890;9.278;2023-08-21T06:16:24;99299.09;;;24.40;81.84
9969;BME280;5025;48.890;9.278;2023-08-21T06:18:49;99304.81;;;24.43;81.72
9969;BME280;5025;48.890;9.278;2023-08-21T06:21:14;99302.06;;;24.43;81.84
9969;BME280;5025;48.890;9.278;2023-08-21T06:23:40;99311.97;;;24.44;81.73
9969;BME280;5025;48.890;9.278;2023-08-21T06:26:05;99305.94;;;24.42;81.81
9969;BME280;5025;48.890;9.278;2023-08-21T06:28:30;99304.28;;;24.41;81.98
9969;BME280;5025;48.890;9.278;2023-08-21T06:30:56;99310.97;;;24.40;81.98
9969;BME280;5025;48.890;9.278;2023-08-21T06:33:23;99309.50;;;24.43;81.72
9969;BME280;5025;48.890;9.278;2023-08-21T06:35:48;99310.84;;;24.45;81.77
9969;BME280;5025;48.890;9.278;2023-08-21T06:38:13;99313.00;;;24.48;81.57
9969;BME280;5025;48.890;9.278;2023-08-21T06:40:38;99311.88;;;24.49;81.69
9969;BME280;5025;48.890;9.278;2023-08-21T06:43:04;99319.22;;;24.54;81.26
9969;BME280;5025;48.890;9.278;2023-08-21T06:45:31;99315.00;;;24.57;81.11
9969;BME280;5025;48.890;9.278;2023-08-21T06:47:57;99316.88;;;24.61;80.92
9969;BME280;5025;48.890;9.278;2023-08-21T06:50:22;99314.34;;;24.65;80.54
9969;BME280;5025;48.890;9.278;2023-08-21T06:52:48;99314.03;;;24.66;80.34
9969;BME280;5025;48.890;9.278;2023-08-21T06:55:13;99312.38;;;24.65;80.45
9969;BME280;5025;48.890;9.278;2023-08-21T06:57:38;99318.22;;;24.64;80.37
9969;BME280;5025;48.890;9.278;2023-08-21T07:00:05;99324.25;;;24.66;80.39
9969;BME280;5025;48.890;9.278;2023-08-21T07:02:30;99315.97;;;24.66;80.15
9969;BME280;5025;48.890;9.278;2023-08-21T07:04:56;99317.59;;;24.67;79.83
9969;BME280;5025;48.890;9.278;2023-08-21T07:07:21;99319.44;;;24.72;79.51
9969;BME280;5025;48.890;9.278;2023-08-21T07:09:46;99324.84;;;24.77;79.10
9969;BME280;5025;48.890;9.278;2023-08-21T07:12:11;99316.47;;;24.82;79.59
9969;BME280;5025;48.890;9.278;2023-08-21T07:14:37;99322.34;;;24.89;78.89
9969;BME280;5025;48.890;9.278;2023-08-21T07:17:02;99322.56;;;24.93;78.59
9969;BME280;5025;48.890;9.278;2023-08-21T07:19:27;99319.81;;;24.93;78.38
9969;BME280;5025;48.890;9.278;2023-08-21T07:21:53;99323.69;;;24.92;78.45
9969;BME280;5025;48.890;9.278;2023-08-21T07:24:18;99322.44;;;24.98;77.92
9969;BME280;5025;48.890;9.278;2023-08-21T07:26:43;99323.47;;;25.02;77.87
9969;BME280;5025;48.890;9.278;2023-08-21T07:29:08;99328.34;;;25.05;77.82
9969;BME280;5025;48.890;9.278;2023-08-21T07:31:34;99329.84;;;25.11;77.59
9969;BME280;5025;48.890;9.278;2023-08-21T07:33:59;99333.00;;;25.18;77.14
9969;BME280;5025;48.890;9.278;2023-08-21T07:36:24;99334.03;;;25.22;76.89
9969;BME280;5025;48.890;9.278;2023-08-21T07:38:50;99331.69;;;25.16;76.86
9969;BME280;5025;48.890;9.278;2023-08-21T07:41:15;99331.00;;;25.10;77.16
9969;BME280;5025;48.890;9.278;2023-08-21T07:43:42;99334.06;;;25.09;77.23
9969;BME280;5025;48.890;9.278;2023-08-21T07:46:11;99335.38;;;25.11;77.19
9969;BME280;5025;48.890;9.278;2023-08-21T07:48:44;99328.09;;;25.15;77.38
9969;BME280;5025;48.890;9.278;2023-08-21T07:51:09;99332.56;;;25.25;77.34
9969;BME280;5025;48.890;9.278;2023-08-21T07:53:34;99337.88;;;25.35;77.05
9969;BME280;5025;48.890;9.278;2023-08-21T07:56:00;99337.97;;;25.44;76.83
9969;BME280;5025;48.890;9.278;2023-08-21T07:58:26;99338.31;;;25.51;76.48
9969;BME280;5025;48.890;9.278;2023-08-21T08:00:51;99333.50;;;25.57;76.50
9969;BME280;5025;48.890;9.278;2023-08-21T08:03:16;99339.41;;;25.64;76.55
9969;BME280;5025;48.890;9.278;2023-08-21T08:05:42;99334.84;;;25.68;76.13
9969;BME280;5025;48.890;9.278;2023-08-21T08:08:08;99333.91;;;25.73;76.15
9969;BME280;5025;48.890;9.278;2023-08-21T08:10:37;99336.56;;;25.78;75.65
9969;BME280;5025;48.890;9.278;2023-08-21T08:13:02;99332.53;;;25.84;75.83
9969;BME280;5025;48.890;9.278;2023-08-21T08:15:27;99334.34;;;25.89;75.76
9969;BME280;5025;48.890;9.278;2023-08-21T08:17:54;99338.59;;;25.95;75.58
9969;BME280;5025;48.890;9.278;2023-08-21T08:20:20;99334.06;;;25.99;75.32
9969;BME280;5025;48.890;9.278;2023-08-21T08:22:45;99337.53;;;26.05;74.96
9969;BME280;5025;48.890;9.278;2023-08-21T08:25:11;99333.00;;;26.09;74.88
9969;BME280;5025;48.890;9.278;2023-08-21T08:27:37;99337.06;;;26.11;74.60
9969;BME280;5025;48.890;9.278;2023-08-21T08:30:03;99331.41;;;26.17;74.57
9969;BME280;5025;48.890;9.278;2023-08-21T08:32:28;99343.13;;;26.22;74.50
9969;BME280;5025;48.890;9.278;2023-08-21T08:34:54;99337.47;;;26.27;74.49
9969;BME280;5025;48.890;9.278;2023-08-21T08:37:19;99331.47;;;26.34;74.15
9969;BME280;5025;48.890;9.278;2023-08-21T08:39:48;99343.19;;;26.40;74.05
9969;BME280;5025;48.890;9.278;2023-08-21T08:42:16;99335.41;;;26.42;74.08
9969;BME280;5025;48.890;9.278;2023-08-21T08:44:42;99332.94;;;26.49;73.83
9969;BME280;5025;48.890;9.278;2023-08-21T08:47:09;99332.63;;;26.51;73.66
9969;BME280;5025;48.890;9.278;2023-08-21T08:49:35;99325.00;;;26.56;73.50
9969;BME280;5025;48.890;9.278;2023-08-21T08:52:01;99327.59;;;26.61;73.44
9969;BME280;5025;48.890;9.278;2023-08-21T08:54:26;99329.13;;;26.68;73.12
9969;BME280;5025;48.890;9.278;2023-08-21T08:56:53;99327.50;;;26.75;71.52
9969;BME280;5025;48.890;9.278;2023-08-21T08:59:19;99331.09;;;26.76;71.39
9969;BME280;5025;48.890;9.278;2023-08-21T09:01:44;99330.13;;;26.80;71.18
9969;BME280;5025;48.890;9.278;2023-08-21T09:04:10;99331.28;;;26.88;70.86
9969;BME280;5025;48.890;9.278;2023-08-21T09:06:36;99334.69;;;26.94;70.73
9969;BME280;5025;48.890;9.278;2023-08-21T09:09:01;99329.50;;;27.01;70.54
9969;BME280;5025;48.890;9.278;2023-08-21T09:11:27;99330.66;;;27.09;70.26
9969;BME280;5025;48.890;9.278;2023-08-21T09:13:53;99325.44;;;27.16;69.14
9969;BME280;5025;48.890;9.278;2023-08-21T09:16:19;99324.94;;;27.23;68.72
9969;BME280;5025;48.890;9.278;2023-08-21T09:18:49;99329.97;;;27.29;68.62
9969;BME280;5025;48.890;9.278;2023-08-21T09:21:18;99324.97;;;27.31;67.12
9969;BME280;5025;48.890;9.278;2023-08-21T09:23:44;99320.22;;;27.41;66.59
9969;BME280;5025;48.890;9.278;2023-08-21T09:26:10;99316.47;;;27.45;65.36
9969;BME280;5025;48.890;9.278;2023-08-21T09:28:37;99320.84;;;27.55;65.51
9969;BME280;5025;48.890;9.278;2023-08-21T09:31:02;99316.91;;;27.65;65.10
9969;BME280;5025;48.890;9.278;2023-08-21T09:33:28;99318.50;;;27.75;65.25
9969;BME280;5025;48.890;9.278;2023-08-21T09:35:54;99319.94;;;27.89;64.60
9969;BME280;5025;48.890;9.278;2023-08-21T09:38:21;99312.75;;;27.97;64.21
9969;BME280;5025;48.890;9.278;2023-08-21T09:40:55;99313.41;;;28.03;64.06
9969;BME280;5025;48.890;9.278;2023-08-21T09:43:22;99315.19;;;28.07;63.77
9969;BME280;5025;48.890;9.278;2023-08-21T09:45:51;99313.19;;;28.17;63.69
9969;BME280;5025;48.890;9.278;2023-08-21T09:48:24;99307.91;;;28.24;63.40
9969;BME280;5025;48.890;9.278;2023-08-21T09:50:51;99309.50;;;28.34;63.33
9969;BME280;5025;48.890;9.278;2023-08-21T09:53:16;99304.72;;;28.43;63.03
9969;BME280;5025;48.890;9.278;2023-08-21T09:55:42;99305.16;;;28.54;62.67
9969;BME280;5025;48.890;9.278;2023-08-21T09:58:08;99311.97;;;28.65;62.23
9969;BME280;5025;48.890;9.278;2023-08-21T10:00:35;99308.78;;;28.75;62.35
9969;BME280;5025;48.890;9.278;2023-08-21T10:03:11;99303.31;;;28.88;61.71
9969;BME280;5025;48.890;9.278;2023-08-21T10:05:38;99305.31;;;29.00;60.92
9969;BME280;5025;48.890;9.278;2023-08-21T10:08:06;99296.09;;;29.08;60.63
9969;BME280;5025;48.890;9.278;2023-08-21T10:10:35;99291.75;;;29.19;60.14
9969;BME280;5025;48.890;9.278;2023-08-21T10:13:02;99289.84;;;29.32;59.80
9969;BME280;5025;48.890;9.278;2023-08-21T10:15:28;99294.75;;;29.35;57.82
9969;BME280;5025;48.890;9.278;2023-08-21T10:17:55;99284.69;;;29.43;57.80
9969;BME280;5025;48.890;9.278;2023-08-21T10:20:22;99290.16;;;29.52;56.99
9969;BME280;5025;48.890;9.278;2023-08-21T10:22:49;99283.00;;;29.63;56.96
9969;BME280;5025;48.890;9.278;2023-08-21T10:25:24;99274.56;;;29.72;56.53
9969;BME280;5025;48.890;9.278;2023-08-21T10:27:57;99280.53;;;29.82;56.33
9969;BME280;5025;48.890;9.278;2023-08-21T10:30:25;99269.59;;;29.90;55.98
9969;BME280;5025;48.890;9.278;2023-08-21T10:32:53;99265.09;;;29.97;55.92
9969;BME280;5025;48.890;9.278;2023-08-21T10:35:21;99269.75;;;30.06;55.37
9969;BME280;5025;48.890;9.278;2023-08-21T10:38:19;99278.56;;;30.20;55.17
9969;BME280;5025;48.890;9.278;2023-08-21T10:41:05;99268.13;;;30.29;54.84
9969;BME280;5025;48.890;9.278;2023-08-21T10:43:44;99269.38;;;30.44;54.42
9969;BME280;5025;48.890;9.278;2023-08-21T10:46:10;99270.06;;;30.53;54.64
9969;BME280;5025;48.890;9.278;2023-08-21T10:48:39;99261.84;;;30.57;54.02
9969;BME280;5025;48.890;9.278;2023-08-21T10:51:06;99263.22;;;30.63;53.43
9969;BME280;5025;48.890;9.278;2023-08-21T10:53:33;99267.75;;;30.68;53.38
9969;BME280;5025;48.890;9.278;2023-08-21T10:56:05;99263.41;;;30.70;53.10
9969;BME280;5025;48.890;9.278;2023-08-21T10:58:44;99259.56;;;30.75;52.64
9969;BME280;5025;48.890;9.278;2023-08-21T11:01:12;99267.81;;;30.84;52.56
9969;BME280;5025;48.890;9.278;2023-08-21T11:03:39;99262.09;;;30.92;52.28
9969;BME280;5025;48.890;9.278;2023-08-21T11:06:08;99254.78;;;31.00;52.21
9969;BME280;5025;48.890;9.278;2023-08-21T11:08:34;99254.88;;;31.04;51.81
9969;BME280;5025;48.890;9.278;2023-08-21T11:11:02;99257.41;;;31.09;51.38
9969;BME280;5025;48.890;9.278;2023-08-21T11:13:27;99255.53;;;31.13;50.95
9969;BME280;5025;48.890;9.278;2023-08-21T11:16:02;99260.13;;;31.21;50.62
9969;BME280;5025;48.890;9.278;2023-08-21T11:18:36;99255.91;;;31.27;50.49
9969;BME280;5025;48.890;9.278;2023-08-21T11:21:10;99261.00;;;31.38;50.29
9969;BME280;5025;48.890;9.278;2023-08-21T11:23:40;99263.34;;;31.52;49.32
9969;BME280;5025;48.890;9.278;2023-08-21T11:26:06;99258.00;;;31.59;49.22
9969;BME280;5025;48.890;9.278;2023-08-21T11:28:35;99258.25;;;31.70;48.42
9969;BME280;5025;48.890;9.278;2023-08-21T11:31:00;99255.94;;;31.56;44.38
9969;BME280;5025;48.890;9.278;2023-08-21T11:33:27;99256.00;;;31.59;44.92
9969;BME280;5025;48.890;9.278;2023-08-21T11:35:53;99249.34;;;31.64;44.45
9969;BME280;5025;48.890;9.278;2023-08-21T11:38:20;99251.16;;;31.72;44.44
9969;BME280;5025;48.890;9.278;2023-08-21T11:40:57;99250.50;;;31.79;44.50
9969;BME280;5025;48.890;9.278;2023-08-21T11:43:34;99250.63;;;31.83;44.51
9969;BME280;5025;48.890;9.278;2023-08-21T11:46:04;99244.31;;;31.86;44.53
9969;BME280;5025;48.890;9.278;2023-08-21T11:48:30;99241.25;;;31.91;44.46
9969;BME280;5025;48.890;9.278;2023-08-21T11:50:55;99237.28;;;31.92;44.46
9969;BME280;5025;48.890;9.278;2023-08-21T11:53:40;99228.63;;;31.97;44.50
9969;BME280;5025;48.890;9.278;2023-08-21T11:56:10;99236.09;;;32.09;45.14
9969;BME280;5025;48.890;9.278;2023-08-21T11:58:40;99237.19;;;32.20;44.91
9969;BME280;5025;48.890;9.278;2023-08-21T12:01:05;99236.25;;;32.32;45.27
9969;BME280;5025;48.890;9.278;2023-08-21T12:03:38;99240.19;;;32.47;44.66
9969;BME280;5025;48.890;9.278;2023-08-21T12:06:07;99239.31;;;32.43;44.40
9969;BME280;5025;48.890;9.278;2023-08-21T12:08:33;99235.47;;;32.51;44.54
9969;BME280;5025;48.890;9.278;2023-08-21T12:10:59;99229.31;;;32.61;44.38
9969;BME280;5025;48.890;9.278;2023-08-21T12:13:24;99229.66;;;32.76;44.60
9969;BME280;5025;48.890;9.278;2023-08-21T12:15:49;99233.03;;;32.85;44.33
9969;BME280;5025;48.890;9.278;2023-08-21T12:18:14;99231.28;;;32.77;43.11
9969;BME280;5025;48.890;9.278;2023-08-21T12:20:39;99228.03;;;32.75;42.27
9969;BME280;5025;48.890;9.278;2023-08-21T12:23:05;99226.25;;;32.66;41.81
9969;BME280;5025;48.890;9.278;2023-08-21T12:25:30;99231.00;;;32.46;42.09
9969;BME280;5025;48.890;9.278;2023-08-21T12:27:57;99231.47;;;32.32;41.69
9969;BME280;5025;48.890;9.278;2023-08-21T12:30:22;99223.25;;;32.40;41.79
9969;BME280;5025;48.890;9.278;2023-08-21T12:32:47;99229.72;;;32.44;42.22
9969;BME280;5025;48.890;9.278;2023-08-21T12:35:12;99215.72;;;32.60;42.27
9969;BME280;5025;48.890;9.278;2023-08-21T12:37:38;99210.38;;;32.70;42.20
9969;BME280;5025;48.890;9.278;2023-08-21T12:40:04;99217.44;;;32.84;41.96
9969;BME280;5025;48.890;9.278;2023-08-21T12:42:29;99215.38;;;33.00;42.06
9969;BME280;5025;48.890;9.278;2023-08-21T12:44:54;99215.25;;;33.16;42.23
9969;BME280;5025;48.890;9.278;2023-08-21T12:47:19;99215.50;;;33.27;42.00
9969;BME280;5025;48.890;9.278;2023-08-21T12:49:45;99214.75;;;33.30;41.44
9969;BME280;5025;48.890;9.278;2023-08-21T12:52:10;99205.75;;;33.40;41.62
9969;BME280;5025;48.890;9.278;2023-08-21T12:54:38;99195.22;;;33.57;41.32
9969;BME280;5025;48.890;9.278;2023-08-21T12:57:03;99203.44;;;33.69;41.35
9969;BME280;5025;48.890;9.278;2023-08-21T12:59:28;99195.31;;;33.84;40.96
9969;BME280;5025;48.890;9.278;2023-08-21T13:01:54;99198.13;;;33.84;39.97
9969;BME280;5025;48.890;9.278;2023-08-21T13:04:19;99196.66;;;33.70;39.49
9969;BME280;5025;48.890;9.278;2023-08-21T13:06:44;99193.31;;;33.61;39.14
9969;BME280;5025;48.890;9.278;2023-08-21T13:09:09;99181.94;;;33.73;39.53
9969;BME280;5025;48.890;9.278;2023-08-21T13:11:34;99186.19;;;33.90;39.31
9969;BME280;5025;48.890;9.278;2023-08-21T13:14:00;99188.84;;;34.06;39.75
9969;BME280;5025;48.890;9.278;2023-08-21T13:16:25;99190.25;;;34.20;39.62
9969;BME280;5025;48.890;9.278;2023-08-21T13:18:50;99192.47;;;34.34;39.48
9969;BME280;5025;48.890;9.278;2023-08-21T13:21:16;99186.25;;;34.47;39.29
9969;BME280;5025;48.890;9.278;2023-08-21T13:23:42;99185.56;;;34.58;38.65